Terminal Aerodrome Forecast
Issued by NWS Wakefield, VA

Home | Current Version | Previous Version | Text Only | Print | Product List | Glossary On
Versions: 1 2 3 4 5 6 7 8 9 10 11 12 13 14 15 16 17 18 19 20 21
000
FTUS41 KAKQ 272328
TAFSBY
TAF
KSBY 272328Z 2800/2824 20011KT P6SM SCT060 BKN250
     FM280300 18007KT P6SM BKN100
     FM280800 20006KT P6SM VCSH BKN050
     FM281100 21005KT 3SM BR BKN010 BKN050
     FM281400 21008KT P6SM SCT035 BKN050
     FM281900 20009KT P6SM BKN050=

USA.gov is the U.S. government's official web portal to all federal, state and local government web resources and services.